sensor_id;sensor_type;location;lat;lon;timestamp;pressure;altitude;pressure_sealevel;temperature;humidity
60055;BME280;45930;53.514;55.904;2023-03-05T00:00:51;49337.97;;;-149.77;86.20
60055;BME280;45930;53.514;55.904;2023-03-05T00:01:52;49367.69;;;-149.77;86.22
60055;BME280;45930;53.514;55.904;2023-03-05T00:02:53;49359.75;;;-149.77;85.73
60055;BME280;45930;53.514;55.904;2023-03-05T00:03:55;49377.59;;;-149.77;85.52
60055;BME280;45930;53.514;55.904;2023-03-05T00:04:56;49393.44;;;-149.77;85.71
60055;BME280;45930;53.514;55.904;2023-03-05T00:05:56;49389.47;;;-149.77;85.91
60055;BME280;45930;53.514;55.904;2023-03-05T00:06:57;49383.53;;;-149.77;85.71
60055;BME280;45930;53.514;55.904;2023-03-05T00:07:58;49381.56;;;-149.77;86.08
60055;BME280;45930;53.514;55.904;2023-03-05T00:08:59;49351.84;;;-149.77;86.07
60055;BME280;45930;53.514;55.904;2023-03-05T00:10:00;49359.75;;;-149.77;86.00
60055;BME280;45930;53.514;55.904;2023-03-05T00:11:04;49347.88;;;-149.77;86.34
60055;BME280;45930;53.514;55.904;2023-03-05T00:12:07;49343.91;;;-149.77;86.15
60055;BME280;45930;53.514;55.904;2023-03-05T00:13:07;49369.66;;;-149.77;86.83
60055;BME280;45930;53.514;55.904;2023-03-05T00:14:09;49349.84;;;-149.77;86.56
60055;BME280;45930;53.514;55.904;2023-03-05T00:15:10;49351.84;;;-149.77;87.10
60055;BME280;45930;53.514;55.904;2023-03-05T00:16:13;49332.03;;;-149.77;87.75
60055;BME280;45930;53.514;55.904;2023-03-05T00:17:14;49353.81;;;-149.77;87.44
60055;BME280;45930;53.514;55.904;2023-03-05T00:18:15;49312.22;;;-149.77;87.63
60055;BME280;45930;53.514;55.904;2023-03-05T00:19:16;49385.50;;;-149.77;88.45
60055;BME280;45930;53.514;55.904;2023-03-05T00:20:17;49339.94;;;-149.77;88.02
60055;BME280;45930;53.514;55.904;2023-03-05T00:21:26;49353.81;;;-149.77;88.49
60055;BME280;45930;53.514;55.904;2023-03-05T00:22:27;49385.50;;;-149.77;89.67
60055;BME280;45930;53.514;55.904;2023-03-05T00:23:28;49334.00;;;-149.77;89.87
60055;BME280;45930;53.514;55.904;2023-03-05T00:24:29;49353.81;;;-149.77;90.14
60055;BME280;45930;53.514;55.904;2023-03-05T00:25:30;49339.94;;;-149.77;90.35
60055;BME280;45930;53.514;55.904;2023-03-05T00:26:34;49343.91;;;-149.77;90.66
60055;BME280;45930;53.514;55.904;2023-03-05T00:27:35;49353.81;;;-149.77;90.81
60055;BME280;45930;53.514;55.904;2023-03-05T00:28:36;49341.94;;;-149.77;91.02
60055;BME280;45930;53.514;55.904;2023-03-05T00:29:36;49336.00;;;-149.77;91.17
60055;BME280;45930;53.514;55.904;2023-03-05T00:30:37;49349.84;;;-149.77;90.77
60055;BME280;45930;53.514;55.904;2023-03-05T00:31:38;49365.69;;;-149.77;90.56
60055;BME280;45930;53.514;55.904;2023-03-05T00:32:39;49328.06;;;-149.77;90.73
60055;BME280;45930;53.514;55.904;2023-03-05T00:33:40;49361.75;;;-149.77;90.27
60055;BME280;45930;53.514;55.904;2023-03-05T00:34:40;49341.94;;;-149.77;90.73
60055;BME280;45930;53.514;55.904;2023-03-05T00:35:43;49343.91;;;-149.77;90.80
60055;BME280;45930;53.514;55.904;2023-03-05T00:36:50;49337.97;;;-149.77;90.61
60055;BME280;45930;53.514;55.904;2023-03-05T00:37:51;49337.97;;;-149.77;90.53
60055;BME280;45930;53.514;55.904;2023-03-05T00:38:53;49334.00;;;-149.77;90.53
60055;BME280;45930;53.514;55.904;2023-03-05T00:39:54;49341.94;;;-149.77;90.81
60055;BME280;45930;53.514;55.904;2023-03-05T00:40:54;49345.91;;;-149.77;90.72
60055;BME280;45930;53.514;55.904;2023-03-05T00:41:55;49322.13;;;-149.77;90.84
60055;BME280;45930;53.514;55.904;2023-03-05T00:42:56;49361.75;;;-149.77;90.41
60055;BME280;45930;53.514;55.904;2023-03-05T00:43:57;49326.09;;;-149.77;89.92
60055;BME280;45930;53.514;55.904;2023-03-05T00:44:57;49330.03;;;-149.77;90.38
60055;BME280;45930;53.514;55.904;2023-03-05T00:45:58;49363.72;;;-149.77;90.51
60055;BME280;45930;53.514;55.904;2023-03-05T00:46:59;49353.81;;;-149.77;90.27
60055;BME280;45930;53.514;55.904;2023-03-05T00:48:00;49339.94;;;-149.77;89.60
60055;BME280;45930;53.514;55.904;2023-03-05T00:49:01;49339.94;;;-149.77;89.62
60055;BME280;45930;53.514;55.904;2023-03-05T00:50:06;49359.75;;;-149.77;90.15
60055;BME280;45930;53.514;55.904;2023-03-05T00:51:07;49337.97;;;-149.77;90.12
60055;BME280;45930;53.514;55.904;2023-03-05T00:52:08;49345.91;;;-149.77;89.93
60055;BME280;45930;53.514;55.904;2023-03-05T00:53:09;49355.78;;;-149.77;90.07
60055;BME280;45930;53.514;55.904;2023-03-05T00:54:10;49322.13;;;-149.77;90.37
60055;BME280;45930;53.514;55.904;2023-03-05T00:55:11;49349.84;;;-149.77;90.58
60055;BME280;45930;53.514;55.904;2023-03-05T00:56:12;49365.69;;;-149.77;90.29
60055;BME280;45930;53.514;55.904;2023-03-05T00:57:12;49369.66;;;-149.77;90.57
60055;BME280;45930;53.514;55.904;2023-03-05T00:58:14;49347.88;;;-149.77;90.74
60055;BME280;45930;53.514;55.904;2023-03-05T00:59:14;49359.75;;;-149.77;91.03
60055;BME280;45930;53.514;55.904;2023-03-05T01:00:16;49351.84;;;-149.77;91.25
60055;BME280;45930;53.514;55.904;2023-03-05T01:01:17;49349.84;;;-149.77;91.23
60055;BME280;45930;53.514;55.904;2023-03-05T01:02:17;49345.91;;;-149.77;91.15
60055;BME280;45930;53.514;55.904;2023-03-05T01:03:18;49345.91;;;-149.77;90.69
60055;BME280;45930;53.514;55.904;2023-03-05T01:04:19;49339.94;;;-149.77;90.64
60055;BME280;45930;53.514;55.904;2023-03-05T01:05:20;49339.94;;;-149.77;90.63
60055;BME280;45930;53.514;55.904;2023-03-05T01:06:21;49339.94;;;-149.77;90.62
60055;BME280;45930;53.514;55.904;2023-03-05T01:07:21;49363.72;;;-149.77;89.74
60055;BME280;45930;53.514;55.904;2023-03-05T01:08:23;49345.91;;;-149.77;89.41
60055;BME280;45930;53.514;55.904;2023-03-05T01:09:24;49334.00;;;-149.77;89.80
60055;BME280;45930;53.514;55.904;2023-03-05T01:10:25;49353.81;;;-149.77;90.48
60055;BME280;45930;53.514;55.904;2023-03-05T01:11:26;49341.94;;;-149.77;90.54
60055;BME280;45930;53.514;55.904;2023-03-05T01:12:27;49355.78;;;-149.77;90.70
60055;BME280;45930;53.514;55.904;2023-03-05T01:13:27;49330.03;;;-149.77;91.03
60055;BME280;45930;53.514;55.904;2023-03-05T01:14:28;49322.13;;;-149.77;91.39
60055;BME280;45930;53.514;55.904;2023-03-05T01:15:29;49365.69;;;-149.77;91.64
60055;BME280;45930;53.514;55.904;2023-03-05T01:16:30;49351.84;;;-149.77;91.91
60055;BME280;45930;53.514;55.904;2023-03-05T01:17:31;49355.78;;;-149.77;91.88
60055;BME280;45930;53.514;55.904;2023-03-05T01:18:32;49316.19;;;-149.77;92.01
60055;BME280;45930;53.514;55.904;2023-03-05T01:19:32;49334.00;;;-149.77;92.22
60055;BME280;45930;53.514;55.904;2023-03-05T01:20:33;49355.78;;;-149.77;92.30
60055;BME280;45930;53.514;55.904;2023-03-05T01:21:35;49328.06;;;-149.77;92.77
60055;BME280;45930;53.514;55.904;2023-03-05T01:22:36;49330.03;;;-149.77;92.39
60055;BME280;45930;53.514;55.904;2023-03-05T01:23:37;49330.03;;;-149.77;92.46
60055;BME280;45930;53.514;55.904;2023-03-05T01:24:37;49334.00;;;-149.77;92.37
60055;BME280;45930;53.514;55.904;2023-03-05T01:25:38;49284.50;;;-149.77;92.30
60055;BME280;45930;53.514;55.904;2023-03-05T01:26:39;49328.06;;;-149.77;92.42
60055;BME280;45930;53.514;55.904;2023-03-05T01:27:40;49345.91;;;-149.77;92.33
60055;BME280;45930;53.514;55.904;2023-03-05T01:28:41;49320.16;;;-149.77;92.61
60055;BME280;45930;53.514;55.904;2023-03-05T01:29:41;49310.25;;;-149.77;92.23
60055;BME280;45930;53.514;55.904;2023-03-05T01:30:42;49322.13;;;-149.77;91.70
60055;BME280;45930;53.514;55.904;2023-03-05T01:31:43;49322.13;;;-149.77;91.04
60055;BME280;45930;53.514;55.904;2023-03-05T01:32:44;49316.19;;;-149.77;91.00
60055;BME280;45930;53.514;55.904;2023-03-05T01:33:45;49357.78;;;-149.77;90.94
60055;BME280;45930;53.514;55.904;2023-03-05T01:34:46;49326.09;;;-149.77;91.11
60055;BME280;45930;53.514;55.904;2023-03-05T01:35:47;49326.09;;;-149.77;91.03
60055;BME280;45930;53.514;55.904;2023-03-05T01:36:48;49320.16;;;-149.77;89.83
60055;BME280;45930;53.514;55.904;2023-03-05T01:37:53;49330.03;;;-149.77;90.31
60055;BME280;45930;53.514;55.904;2023-03-05T01:38:53;49357.78;;;-149.77;90.28
60055;BME280;45930;53.514;55.904;2023-03-05T01:39:54;49347.88;;;-149.77;90.22
60055;BME280;45930;53.514;55.904;2023-03-05T01:40:55;49337.97;;;-149.77;89.58
60055;BME280;45930;53.514;55.904;2023-03-05T01:41:56;49361.75;;;-149.77;88.52
60055;BME280;45930;53.514;55.904;2023-03-05T01:43:07;49334.00;;;-149.77;90.07
60055;BME280;45930;53.514;55.904;2023-03-05T01:44:26;49337.97;;;-149.77;92.43
60055;BME280;45930;53.514;55.904;2023-03-05T01:45:29;49316.19;;;-149.77;92.24
60055;BME280;45930;53.514;55.904;2023-03-05T01:46:37;49312.22;;;-149.77;93.42
60055;BME280;45930;53.514;55.904;2023-03-05T01:47:38;49320.16;;;-149.77;91.72
60055;BME280;45930;53.514;55.904;2023-03-05T01:48:41;49300.34;;;-149.77;93.24
60055;BME280;45930;53.514;55.904;2023-03-05T01:49:43;49337.97;;;-149.77;93.46
60055;BME280;45930;53.514;55.904;2023-03-05T01:50:44;49280.53;;;-149.77;93.91
60055;BME280;45930;53.514;55.904;2023-03-05T01:52:56;49330.03;;;-149.77;92.58
60055;BME280;45930;53.514;55.904;2023-03-05T01:53:59;49294.41;;;-149.77;93.54
60055;BME280;45930;53.514;55.904;2023-03-05T01:55:05;49300.34;;;-149.77;93.56
60055;BME280;45930;53.514;55.904;2023-03-05T01:56:08;49300.34;;;-149.77;93.51
60055;BME280;45930;53.514;55.904;2023-03-05T01:57:14;49322.13;;;-149.77;93.90
60055;BME280;45930;53.514;55.904;2023-03-05T01:58:16;49302.31;;;-149.77;95.18
60055;BME280;45930;53.514;55.904;2023-03-05T01:59:18;49298.34;;;-149.77;95.72
60055;BME280;45930;53.514;55.904;2023-03-05T02:00:49;49292.41;;;-149.77;96.00
60055;BME280;45930;53.514;55.904;2023-03-05T02:01:54;49304.28;;;-149.77;94.91
60055;BME280;45930;53.514;55.904;2023-03-05T02:02:56;49300.34;;;-149.77;95.71
60055;BME280;45930;53.514;55.904;2023-03-05T02:04:00;49292.41;;;-149.77;96.06
60055;BME280;45930;53.514;55.904;2023-03-05T02:05:06;49260.72;;;-149.77;95.96
60055;BME280;45930;53.514;55.904;2023-03-05T02:06:09;49272.59;;;-149.77;95.73
60055;BME280;45930;53.514;55.904;2023-03-05T02:07:11;49266.66;;;-149.77;95.72
60055;BME280;45930;53.514;55.904;2023-03-05T02:08:15;49254.78;;;-149.77;95.14
60055;BME280;45930;53.514;55.904;2023-03-05T02:09:15;49286.47;;;-149.77;94.26
60055;BME280;45930;53.514;55.904;2023-03-05T02:10:26;49312.22;;;-149.77;94.48
60055;BME280;45930;53.514;55.904;2023-03-05T02:11:28;49288.44;;;-149.77;94.28
60055;BME280;45930;53.514;55.904;2023-03-05T02:12:29;49262.69;;;-149.77;94.20
60055;BME280;45930;53.514;55.904;2023-03-05T02:13:49;49302.31;;;-149.77;93.55
60055;BME280;45930;53.514;55.904;2023-03-05T02:14:51;49304.28;;;-149.77;93.31
60055;BME280;45930;53.514;55.904;2023-03-05T02:16:00;49326.09;;;-149.77;92.69
60055;BME280;45930;53.514;55.904;2023-03-05T02:17:01;49276.56;;;-149.77;92.90
60055;BME280;45930;53.514;55.904;2023-03-05T02:18:02;49300.34;;;-149.77;91.46
60055;BME280;45930;53.514;55.904;2023-03-05T02:19:05;49298.34;;;-149.77;92.55
60055;BME280;45930;53.514;55.904;2023-03-05T02:20:11;49292.41;;;-149.77;92.82
60055;BME280;45930;53.514;55.904;2023-03-05T02:21:13;49300.34;;;-149.77;92.83
60055;BME280;45930;53.514;55.904;2023-03-05T02:22:15;49302.31;;;-149.77;93.26
60055;BME280;45930;53.514;55.904;2023-03-05T02:23:17;49326.09;;;-149.77;93.40
60055;BME280;45930;53.514;55.904;2023-03-05T02:24:39;49286.47;;;-149.77;93.43
60055;BME280;45930;53.514;55.904;2023-03-05T02:25:40;49268.63;;;-149.77;93.48
60055;BME280;45930;53.514;55.904;2023-03-05T02:26:42;49310.25;;;-149.77;92.43
60055;BME280;45930;53.514;55.904;2023-03-05T02:28:04;49298.34;;;-149.77;93.27
60055;BME280;45930;53.514;55.904;2023-03-05T02:29:07;49286.47;;;-149.77;93.20
60055;BME280;45930;53.514;55.904;2023-03-05T02:30:10;49322.13;;;-149.77;93.04
60055;BME280;45930;53.514;55.904;2023-03-05T02:31:19;49312.22;;;-149.77;92.61
60055;BME280;45930;53.514;55.904;2023-03-05T02:32:20;49310.25;;;-149.77;93.06
60055;BME280;45930;53.514;55.904;2023-03-05T02:33:21;49306.28;;;-149.77;92.96
60055;BME280;45930;53.514;55.904;2023-03-05T02:34:22;49312.22;;;-149.77;93.04
60055;BME280;45930;53.514;55.904;2023-03-05T02:35:23;49298.34;;;-149.77;92.96
60055;BME280;45930;53.514;55.904;2023-03-05T02:36:24;49314.19;;;-149.77;92.98
60055;BME280;45930;53.514;55.904;2023-03-05T02:37:25;49294.41;;;-149.77;92.91
60055;BME280;45930;53.514;55.904;2023-03-05T02:38:26;49294.41;;;-149.77;93.23
60055;BME280;45930;53.514;55.904;2023-03-05T02:39:27;49292.41;;;-149.77;93.51
60055;BME280;45930;53.514;55.904;2023-03-05T02:40:27;49318.16;;;-149.77;93.47
60055;BME280;45930;53.514;55.904;2023-03-05T02:41:28;49302.31;;;-149.77;93.69
60055;BME280;45930;53.514;55.904;2023-03-05T02:42:29;49284.50;;;-149.77;93.81
60055;BME280;45930;53.514;55.904;2023-03-05T02:43:33;49306.28;;;-149.77;94.29
60055;BME280;45930;53.514;55.904;2023-03-05T02:44:33;49302.31;;;-149.77;94.28
60055;BME280;45930;53.514;55.904;2023-03-05T02:45:34;49270.63;;;-149.77;94.06
60055;BME280;45930;53.514;55.904;2023-03-05T02:46:35;49290.44;;;-149.77;94.03
60055;BME280;45930;53.514;55.904;2023-03-05T02:47:36;49314.19;;;-149.77;94.32
60055;BME280;45930;53.514;55.904;2023-03-05T02:48:37;49270.63;;;-149.77;94.26
60055;BME280;45930;53.514;55.904;2023-03-05T02:49:37;49274.59;;;-149.77;94.36
60055;BME280;45930;53.514;55.904;2023-03-05T02:50:39;49302.31;;;-149.77;93.66
60055;BME280;45930;53.514;55.904;2023-03-05T02:51:40;49290.44;;;-149.77;93.75
60055;BME280;45930;53.514;55.904;2023-03-05T02:52:41;49284.50;;;-149.77;94.24
60055;BME280;45930;53.514;55.904;2023-03-05T02:53:42;49290.44;;;-149.77;94.14
60055;BME280;45930;53.514;55.904;2023-03-05T02:54:43;49294.41;;;-149.77;94.67
60055;BME280;45930;53.514;55.904;2023-03-05T02:55:47;49274.59;;;-149.77;94.78
60055;BME280;45930;53.514;55.904;2023-03-05T02:56:49;49280.53;;;-149.77;94.94
60055;BME280;45930;53.514;55.904;2023-03-05T02:57:49;49274.59;;;-149.77;94.97
60055;BME280;45930;53.514;55.904;2023-03-05T02:58:50;49270.63;;;-149.77;95.16
60055;BME280;45930;53.514;55.904;2023-03-05T02:59:51;49262.69;;;-149.77;94.95
60055;BME280;45930;53.514;55.904;2023-03-05T03:00:52;49262.69;;;-149.77;95.59
60055;BME280;45930;53.514;55.904;2023-03-05T03:01:52;49258.75;;;-149.77;95.99
60055;BME280;45930;53.514;55.904;2023-03-05T03:02:53;49262.69;;;-149.77;96.06
60055;BME280;45930;53.514;55.904;2023-03-05T03:03:54;49274.59;;;-149.77;95.97
60055;BME280;45930;53.514;55.904;2023-03-05T03:04:55;49242.91;;;-149.77;96.07
60055;BME280;45930;53.514;55.904;2023-03-05T03:05:56;49282.50;;;-149.77;95.90
60055;BME280;45930;53.514;55.904;2023-03-05T03:06:57;49264.69;;;-149.77;95.71
60055;BME280;45930;53.514;55.904;2023-03-05T03:07:57;49252.78;;;-149.77;95.73
60055;BME280;45930;53.514;55.904;2023-03-05T03:08:58;49294.41;;;-149.77;96.00
60055;BME280;45930;53.514;55.904;2023-03-05T03:09:59;49258.75;;;-149.77;96.13
60055;BME280;45930;53.514;55.904;2023-03-05T03:11:08;49238.94;;;-149.77;96.53
60055;BME280;45930;53.514;55.904;2023-03-05T03:12:10;49252.78;;;-149.77;95.98
60055;BME280;45930;53.514;55.904;2023-03-05T03:13:11;49284.50;;;-149.77;95.92
60055;BME280;45930;53.514;55.904;2023-03-05T03:14:12;49250.81;;;-149.77;96.41
60055;BME280;45930;53.514;55.904;2023-03-05T03:15:14;49246.84;;;-149.77;95.85
60055;BME280;45930;53.514;55.904;2023-03-05T03:16:16;49250.81;;;-149.77;95.50
60055;BME280;45930;53.514;55.904;2023-03-05T03:17:18;49248.84;;;-149.77;95.47
60055;BME280;45930;53.514;55.904;2023-03-05T03:18:19;49256.75;;;-149.77;95.29
60055;BME280;45930;53.514;55.904;2023-03-05T03:19:19;49242.91;;;-149.77;96.06
60055;BME280;45930;53.514;55.904;2023-03-05T03:20:20;49254.78;;;-149.77;96.30
60055;BME280;45930;53.514;55.904;2023-03-05T03:21:23;49260.72;;;-149.77;95.71
60055;BME280;45930;53.514;55.904;2023-03-05T03:22:24;49274.59;;;-149.77;95.22
60055;BME280;45930;53.514;55.904;2023-03-05T03:23:26;49262.69;;;-149.77;95.63
60055;BME280;45930;53.514;55.904;2023-03-05T03:24:29;49234.97;;;-149.77;95.51
60055;BME280;45930;53.514;55.904;2023-03-05T03:25:30;49242.91;;;-149.77;94.36
60055;BME280;45930;53.514;55.904;2023-03-05T03:26:31;49236.94;;;-149.77;94.61
60055;BME280;45930;53.514;55.904;2023-03-05T03:27:32;49234.97;;;-149.77;93.91
60055;BME280;45930;53.514;55.904;2023-03-05T03:28:33;49254.78;;;-149.77;93.93
60055;BME280;45930;53.514;55.904;2023-03-05T03:29:35;49242.91;;;-149.77;93.42
60055;BME280;45930;53.514;55.904;2023-03-05T03:30:36;49258.75;;;-149.77;92.77
60055;BME280;45930;53.514;55.904;2023-03-05T03:31:37;49268.63;;;-149.77;92.51
60055;BME280;45930;53.514;55.904;2023-03-05T03:32:40;49288.44;;;-149.77;92.24
60055;BME280;45930;53.514;55.904;2023-03-05T03:33:41;49272.59;;;-149.77;91.77
60055;BME280;45930;53.514;55.904;2023-03-05T03:34:42;49248.84;;;-149.77;90.91
60055;BME280;45930;53.514;55.904;2023-03-05T03:35:44;49270.63;;;-149.77;90.03
60055;BME280;45930;53.514;55.904;2023-03-05T03:36:47;49246.84;;;-149.77;89.92
60055;BME280;45930;53.514;55.904;2023-03-05T03:37:48;49264.69;;;-149.77;89.35
60055;BME280;45930;53.514;55.904;2023-03-05T03:38:48;49276.56;;;-149.77;89.90
60055;BME280;45930;53.514;55.904;2023-03-05T03:39:49;49260.72;;;-149.77;89.72
60055;BME280;45930;53.514;55.904;2023-03-05T03:40:50;49302.31;;;-149.77;89.96
60055;BME280;45930;53.514;55.904;2023-03-05T03:41:52;49270.63;;;-149.77;89.28
60055;BME280;45930;53.514;55.904;2023-03-05T03:42:53;49288.44;;;-149.77;89.66
60055;BME280;45930;53.514;55.904;2023-03-05T03:43:54;49266.66;;;-149.77;89.33
60055;BME280;45930;53.514;55.904;2023-03-05T03:44:54;49272.59;;;-149.77;89.21
60055;BME280;45930;53.514;55.904;2023-03-05T03:45:55;49298.34;;;-149.77;88.72
60055;BME280;45930;53.514;55.904;2023-03-05T03:46:56;49260.72;;;-149.77;88.67
60055;BME280;45930;53.514;55.904;2023-03-05T03:47:56;49302.31;;;-149.77;88.65
60055;BME280;45930;53.514;55.904;2023-03-05T03:48:57;49278.53;;;-149.77;88.33
60055;BME280;45930;53.514;55.904;2023-03-05T03:49:58;49276.56;;;-149.77;88.41
60055;BME280;45930;53.514;55.904;2023-03-05T03:51:03;49254.78;;;-149.77;88.32
60055;BME280;45930;53.514;55.904;2023-03-05T03:52:04;49274.59;;;-149.77;88.39
60055;BME280;45930;53.514;55.904;2023-03-05T03:53:05;49258.75;;;-149.77;88.42
60055;BME280;45930;53.514;55.904;2023-03-05T03:54:06;49272.59;;;-149.77;87.32
60055;BME280;45930;53.514;55.904;2023-03-05T03:55:07;49244.88;;;-149.77;87.37
60055;BME280;45930;53.514;55.904;2023-03-05T03:56:08;49262.69;;;-149.77;86.44
60055;BME280;45930;53.514;55.904;2023-03-05T03:57:09;49242.91;;;-149.77;86.09
60055;BME280;45930;53.514;55.904;2023-03-05T03:58:10;49262.69;;;-149.77;85.35
60055;BME280;45930;53.514;55.904;2023-03-05T03:59:11;49296.38;;;-149.77;85.50
60055;BME280;45930;53.514;55.904;2023-03-05T04:00:12;49290.44;;;-149.77;85.08
60055;BME280;45930;53.514;55.904;2023-03-05T04:01:13;49252.78;;;-149.77;85.32
60055;BME280;45930;53.514;55.904;2023-03-05T04:02:14;49272.59;;;-149.77;83.98
60055;BME280;45930;53.514;55.904;2023-03-05T04:03:17;49280.53;;;-149.77;83.91
60055;BME280;45930;53.514;55.904;2023-03-05T04:04:18;49320.16;;;-149.77;83.38
60055;BME280;45930;53.514;55.904;2023-03-05T04:05:19;49268.63;;;-149.77;83.01
60055;BME280;45930;53.514;55.904;2023-03-05T04:06:20;49272.59;;;-149.77;82.33
60055;BME280;45930;53.514;55.904;2023-03-05T04:07:21;49304.28;;;-149.77;81.49
60055;BME280;45930;53.514;55.904;2023-03-05T04:08:22;49276.56;;;-149.77;81.57
60055;BME280;45930;53.514;55.904;2023-03-05T04:09:22;49280.53;;;-149.77;82.21
60055;BME280;45930;53.514;55.904;2023-03-05T04:10:24;49272.59;;;-149.77;81.57
60055;BME280;45930;53.514;55.904;2023-03-05T04:11:26;49272.59;;;-149.77;81.69
60055;BME280;45930;53.514;55.904;2023-03-05T04:12:26;49256.75;;;-149.77;81.24
60055;BME280;45930;53.514;55.904;2023-03-05T04:13:27;49280.53;;;-149.77;81.17
60055;BME280;45930;53.514;55.904;2023-03-05T04:14:28;49276.56;;;-149.77;81.04
60055;BME280;45930;53.514;55.904;2023-03-05T04:15:29;49286.47;;;-149.77;80.88
60055;BME280;45930;53.514;55.904;2023-03-05T04:16:30;49292.41;;;-149.77;81.27
60055;BME280;45930;53.514;55.904;2023-03-05T04:17:31;49264.69;;;-149.77;80.09
60055;BME280;45930;53.514;55.904;2023-03-05T04:18:33;49260.72;;;-149.77;80.39
60055;BME280;45930;53.514;55.904;2023-03-05T04:19:33;49308.25;;;-149.77;80.40
60055;BME280;45930;53.514;55.904;2023-03-05T04:20:34;49294.41;;;-149.77;79.18
60055;BME280;45930;53.514;55.904;2023-03-05T04:21:35;49290.44;;;-149.77;80.55
60055;BME280;45930;53.514;55.904;2023-03-05T04:22:36;49286.47;;;-149.77;78.50
60055;BME280;45930;53.514;55.904;2023-03-05T04:23:38;49292.41;;;-149.77;81.44
60055;BME280;45930;53.514;55.904;2023-03-05T04:24:39;49278.53;;;-149.77;82.13
60055;BME280;45930;53.514;55.904;2023-03-05T04:25:40;49276.56;;;-149.77;82.71
60055;BME280;45930;53.514;55.904;2023-03-05T04:26:41;49288.44;;;-149.77;81.96
60055;BME280;45930;53.514;55.904;2023-03-05T04:27:42;49280.53;;;-149.77;82.40
60055;BME280;45930;53.514;55.904;2023-03-05T04:28:42;49276.56;;;-149.77;81.52
60055;BME280;45930;53.514;55.904;2023-03-05T04:29:43;49272.59;;;-149.77;81.26
60055;BME280;45930;53.514;55.904;2023-03-05T04:30:44;49288.44;;;-149.77;80.65
60055;BME280;45930;53.514;55.904;2023-03-05T04:31:45;49290.44;;;-149.77;80.64
60055;BME280;45930;53.514;55.904;2023-03-05T04:32:45;49286.47;;;-149.77;79.90
60055;BME280;45930;53.514;55.904;2023-03-05T04:33:46;49300.34;;;-149.77;80.12
60055;BME280;45930;53.514;55.904;2023-03-05T04:34:47;49286.47;;;-149.77;79.45
60055;BME280;45930;53.514;55.904;2023-03-05T04:35:48;49306.28;;;-149.77;80.47
60055;BME280;45930;53.514;55.904;2023-03-05T04:36:49;49290.44;;;-149.77;79.81
60055;BME280;45930;53.514;55.904;2023-03-05T04:37:50;49316.19;;;-149.77;80.62
60055;BME280;45930;53.514;55.904;2023-03-05T04:38:51;49304.28;;;-149.77;81.49
60055;BME280;45930;53.514;55.904;2023-03-05T04:39:52;49282.50;;;-149.77;81.84
60055;BME280;45930;53.514;55.904;2023-03-05T04:40:52;49272.59;;;-149.77;81.56
60055;BME280;45930;53.514;55.904;2023-03-05T04:41:53;49274.59;;;-149.77;81.71
60055;BME280;45930;53.514;55.904;2023-03-05T04:42:54;49284.50;;;-149.77;82.08
60055;BME280;45930;53.514;55.904;2023-03-05T04:43:55;49290.44;;;-149.77;82.38
60055;BME280;45930;53.514;55.904;2023-03-05T04:44:55;49278.53;;;-149.77;81.81
60055;BME280;45930;53.514;55.904;2023-03-05T04:45:56;49260.72;;;-149.77;81.09
60055;BME280;45930;53.514;55.904;2023-03-05T04:46:57;49284.50;;;-149.77;81.75
60055;BME280;45930;53.514;55.904;2023-03-05T04:47:58;49274.59;;;-149.77;82.12
60055;BME280;45930;53.514;55.904;2023-03-05T04:48:59;49250.81;;;-149.77;80.05
60055;BME280;45930;53.514;55.904;2023-03-05T04:49:59;49260.72;;;-149.77;79.16
60055;BME280;45930;53.514;55.904;2023-03-05T04:51:00;49278.53;;;-149.77;77.94
60055;BME280;45930;53.514;55.904;2023-03-05T04:52:01;49256.75;;;-149.77;76.20
60055;BME280;45930;53.514;55.904;2023-03-05T04:53:02;49266.66;;;-149.77;77.11
60055;BME280;45930;53.514;55.904;2023-03-05T04:54:03;49262.69;;;-149.77;75.87
60055;BME280;45930;53.514;55.904;2023-03-05T04:55:04;49266.66;;;-149.77;74.13
60055;BME280;45930;53.514;55.904;2023-03-05T04:56:05;49286.47;;;-149.77;75.19
60055;BME280;45930;53.514;55.904;2023-03-05T04:57:07;49270.63;;;-149.77;74.46
60055;BME280;45930;53.514;55.904;2023-03-05T04:58:08;49272.59;;;-149.77;73.95
60055;BME280;45930;53.514;55.904;2023-03-05T04:59:09;49296.38;;;-149.77;73.27
60055;BME280;45930;53.514;55.904;2023-03-05T05:00:13;49262.69;;;-149.77;71.26
60055;BME280;45930;53.514;55.904;2023-03-05T05:01:14;49280.53;;;-149.77;70.74
60055;BME280;45930;53.514;55.904;2023-03-05T05:02:15;49250.81;;;-149.77;71.87
60055;BME280;45930;53.514;55.904;2023-03-05T05:03:16;49260.72;;;-149.77;71.47
60055;BME280;45930;53.514;55.904;2023-03-05T05:04:16;49266.66;;;-149.77;70.13
60055;BME280;45930;53.514;55.904;2023-03-05T05:05:20;49268.63;;;-149.77;68.99
60055;BME280;45930;53.514;55.904;2023-03-05T05:06:21;49268.63;;;-149.77;69.66
60055;BME280;45930;53.514;55.904;2023-03-05T05:07:21;49264.69;;;-149.77;69.85
60055;BME280;45930;53.514;55.904;2023-03-05T05:08:23;49274.59;;;-149.77;70.48
60055;BME280;45930;53.514;55.904;2023-03-05T05:09:24;49262.69;;;-149.77;69.85
60055;BME280;45930;53.514;55.904;2023-03-05T05:10:25;49274.59;;;-149.77;69.56
60055;BME280;45930;53.514;55.904;2023-03-05T05:11:26;49244.88;;;-149.77;68.36
60055;BME280;45930;53.514;55.904;2023-03-05T05:12:29;49286.47;;;-149.77;67.88
60055;BME280;45930;53.514;55.904;2023-03-05T05:13:31;49252.78;;;-149.77;68.32
60055;BME280;45930;53.514;55.904;2023-03-05T05:14:33;49258.75;;;-149.77;68.04
60055;BME280;45930;53.514;55.904;2023-03-05T05:15:33;49238.94;;;-149.77;67.26
60055;BME280;45930;53.514;55.904;2023-03-05T05:16:35;49270.63;;;-149.77;65.99